Time;durP1;ratioP1;P1;durP2;ratioP2;P2;SDS_P1;SDS_P2;PMS_P1;PMS_P2;Temp;Humidity;BMP_temperature;BMP_pressure;BME280_temperature;BME280_humidity;BME280_pressure;Samples;Min_cycle;Max_cycle;Signal;HPM_P1;HPM_P2
2023/10/05 00:01:05;;;;;;;1.10;0.93;;;;;;;;;;5052087;28;20049;-57
2023/10/05 00:03:31;;;;;;;3.35;0.90;;;;;;;;;;5051434;28;20079;-58
2023/10/05 00:06:04;;;;;;;1.00;0.80;;;;;;;;;;5052198;28;20840;-58
2023/10/05 00:08:31;;;;;;;3.00;1.25;;;;;;;;;;5055512;28;20532;-58
2023/10/05 00:10:58;;;;;;;2.35;1.27;;;;;;;;;;5055298;28;20053;-57
2023/10/05 00:13:26;;;;;;;1.73;0.85;;;;;;;;;;5058261;28;20032;-57
2023/10/05 00:15:52;;;;;;;1.23;0.60;;;;;;;;;;5057091;28;20497;-58
2023/10/05 00:18:21;;;;;;;1.95;0.90;;;;;;;;;;5055982;28;20508;-58
2023/10/05 00:20:48;;;;;;;1.52;0.70;;;;;;;;;;5054334;28;20086;-58
2023/10/05 00:23:14;;;;;;;1.10;0.90;;;;;;;;;;5056822;28;20063;-58
2023/10/05 00:25:40;;;;;;;2.17;0.80;;;;;;;;;;5056426;28;20037;-58
2023/10/05 00:28:11;;;;;;;0.88;0.80;;;;;;;;;;5056390;28;20032;-58
2023/10/05 00:30:37;;;;;;;1.10;0.80;;;;;;;;;;5061250;28;20044;-58
2023/10/05 00:33:09;;;;;;;1.50;0.90;;;;;;;;;;5053218;28;20046;-58
2023/10/05 00:35:38;;;;;;;1.40;1.20;;;;;;;;;;5060207;28;20098;-58
2023/10/05 00:38:12;;;;;;;1.98;1.30;;;;;;;;;;5054801;28;20116;-58
2023/10/05 00:41:13;;;;;;;2.03;1.10;;;;;;;;;;5051001;28;20068;-58
2023/10/05 00:43:31;;;;;;;;;;;;;;;;;;5053312;28;20068;-58
2023/10/05 00:45:57;;;;;;;4.25;1.50;;;;;;;;;;5056895;28;19925;-57
2023/10/05 00:48:34;;;;;;;2.40;1.13;;;;;;;;;;5057156;28;20048;-58
2023/10/05 00:51:23;;;;;;;2.03;1.10;;;;;;;;;;5057494;28;20575;-58
2023/10/05 00:53:47;;;;;;;4.25;1.40;;;;;;;;;;5056902;28;20182;-58
2023/10/05 00:56:15;;;;;;;3.35;1.00;;;;;;;;;;5055632;28;20583;-57
2023/10/05 00:58:46;;;;;;;2.00;1.20;;;;;;;;;;5053355;28;20044;-58
2023/10/05 01:01:22;;;;;;;;;;;;;;;;;;5056293;28;20076;-57
2023/10/05 01:06:49;;;;;;;2.45;1.05;;;;;;;;;;5055419;28;20045;-57
2023/10/05 01:12:13;;;;;;;3.72;1.27;;;;;;;;;;5040122;28;20067;-58
2023/10/05 01:14:45;;;;;;;3.10;1.33;;;;;;;;;;5059550;28;20044;-58
2023/10/05 01:17:11;;;;;;;3.08;1.48;;;;;;;;;;5052906;28;20527;-58
2023/10/05 01:19:39;;;;;;;5.38;1.80;;;;;;;;;;5059815;28;20032;-58
2023/10/05 01:22:16;;;;;;;3.08;1.30;;;;;;;;;;5057265;28;20608;-58
2023/10/05 01:24:45;;;;;;;2.72;1.10;;;;;;;;;;5056545;28;20041;-58
2023/10/05 01:27:11;;;;;;;3.35;1.23;;;;;;;;;;5062428;28;20491;-58
2023/10/05 01:29:37;;;;;;;1.85;1.25;;;;;;;;;;5058772;28;20047;-58
2023/10/05 01:32:03;;;;;;;2.80;1.20;;;;;;;;;;5056856;28;20040;-58
2023/10/05 01:34:29;;;;;;;2.25;1.38;;;;;;;;;;5056244;28;20423;-58
2023/10/05 01:36:56;;;;;;;2.83;0.80;;;;;;;;;;5056816;28;20596;-58
2023/10/05 01:39:22;;;;;;;1.95;0.88;;;;;;;;;;5059147;28;20041;-58
2023/10/05 01:41:48;;;;;;;1.15;0.80;;;;;;;;;;5060877;28;20076;-58
2023/10/05 01:44:14;;;;;;;2.00;1.42;;;;;;;;;;5061482;28;20075;-58
2023/10/05 01:46:41;;;;;;;1.95;0.88;;;;;;;;;;5054568;28;20129;-58
2023/10/05 01:49:08;;;;;;;1.10;0.90;;;;;;;;;;5055319;28;20068;-58
2023/10/05 01:51:34;;;;;;;1.38;0.70;;;;;;;;;;5059075;28;20036;-58
2023/10/05 01:54:11;;;;;;;1.50;0.60;;;;;;;;;;5053044;28;21046;-58
2023/10/05 01:56:39;;;;;;;2.05;0.85;;;;;;;;;;5053847;28;20504;-58
2023/10/05 01:59:06;;;;;;;1.38;0.80;;;;;;;;;;5055099;28;20098;-58
2023/10/05 02:01:37;;;;;;;0.63;0.60;;;;;;;;;;5059598;28;20523;-58
2023/10/05 02:04:03;;;;;;;1.88;0.77;;;;;;;;;;5054200;28;20054;-58
2023/10/05 02:06:39;;;;;;;4.18;1.27;;;;;;;;;;5056776;28;20036;-58
2023/10/05 02:09:05;;;;;;;4.63;1.17;;;;;;;;;;5058449;28;20041;-58
2023/10/05 02:11:33;;;;;;;3.08;1.30;;;;;;;;;;5057805;28;20124;-58
2023/10/05 02:14:06;;;;;;;4.45;1.40;;;;;;;;;;5052638;28;20059;-58
2023/10/05 02:16:32;;;;;;;2.92;1.33;;;;;;;;;;5056724;28;20111;-58
2023/10/05 02:19:05;;;;;;;2.08;1.20;;;;;;;;;;5057357;28;20049;-58
2023/10/05 02:21:40;;;;;;;4.65;1.33;;;;;;;;;;5052944;28;20033;-58
2023/10/05 02:24:17;;;;;;;2.20;1.10;;;;;;;;;;5058754;28;20575;-57
2023/10/05 02:26:54;;;;;;;2.60;0.90;;;;;;;;;;5056268;28;20052;-58
2023/10/05 02:29:21;;;;;;;0.80;0.65;;;;;;;;;;5055588;28;20420;-58
2023/10/05 02:31:56;;;;;;;3.42;1.08;;;;;;;;;;5055217;28;20071;-58
2023/10/05 02:34:22;;;;;;;6.93;1.30;;;;;;;;;;5056051;28;20497;-58
2023/10/05 02:36:50;;;;;;;4.38;1.40;;;;;;;;;;5063231;28;20128;-58
2023/10/05 02:39:21;;;;;;;5.38;1.55;;;;;;;;;;5058918;28;20167;-57
2023/10/05 02:41:50;;;;;;;6.40;1.65;;;;;;;;;;5054478;28;20449;-58
2023/10/05 02:46:48;;;;;;;3.50;1.10;;;;;;;;;;5049425;28;20659;-58
2023/10/05 02:49:15;;;;;;;4.35;1.33;;;;;;;;;;5058174;28;20090;-58
2023/10/05 02:51:43;;;;;;;1.60;0.90;;;;;;;;;;5053373;28;20044;-57
2023/10/05 02:54:10;;;;;;;2.60;1.10;;;;;;;;;;5053242;28;20036;-58
2023/10/05 02:56:39;;;;;;;1.27;0.80;;;;;;;;;;5053797;28;20056;-58
2023/10/05 02:59:14;;;;;;;1.63;0.80;;;;;;;;;;5055100;28;20115;-57
2023/10/05 03:01:40;;;;;;;1.48;0.77;;;;;;;;;;5052825;28;20044;-59
2023/10/05 03:04:21;;;;;;;3.00;1.33;;;;;;;;;;5055146;28;20041;-56
2023/10/05 03:06:53;;;;;;;3.38;1.13;;;;;;;;;;5054201;28;20044;-56
2023/10/05 03:09:21;;;;;;;;;;;;;;;;;;5050467;28;20673;-56
2023/10/05 03:11:49;;;;;;;3.30;1.35;;;;;;;;;;5055280;28;19932;-57
2023/10/05 03:14:21;;;;;;;3.53;1.20;;;;;;;;;;5043562;28;20634;-57
2023/10/05 03:16:56;;;;;;;4.18;1.02;;;;;;;;;;5052288;28;20068;-56
2023/10/05 03:19:22;;;;;;;3.38;1.00;;;;;;;;;;5053136;28;20076;-56
2023/10/05 03:21:50;;;;;;;4.32;1.50;;;;;;;;;;5055788;28;20090;-56
2023/10/05 03:24:17;;;;;;;2.38;1.00;;;;;;;;;;5052262;28;20044;-57
2023/10/05 03:26:43;;;;;;;2.80;1.42;;;;;;;;;;5051570;28;20474;-57
2023/10/05 03:29:12;;;;;;;5.78;2.10;;;;;;;;;;5055182;28;20041;-57
2023/10/05 03:31:52;;;;;;;5.20;1.58;;;;;;;;;;5053788;28;20059;-58
2023/10/05 03:34:18;;;;;;;7.43;1.95;;;;;;;;;;5050139;28;20771;-57
2023/10/05 03:36:47;;;;;;;6.30;1.88;;;;;;;;;;5052321;28;20051;-57
2023/10/05 03:39:13;;;;;;;2.65;1.20;;;;;;;;;;5054110;28;20097;-58
2023/10/05 03:41:39;;;;;;;2.83;1.45;;;;;;;;;;5056111;28;20124;-58
2023/10/05 03:44:07;;;;;;;5.00;1.75;;;;;;;;;;5057519;28;20032;-58
2023/10/05 03:46:34;;;;;;;4.50;1.50;;;;;;;;;;5055836;28;20536;-58
2023/10/05 03:49:06;;;;;;;5.20;2.25;;;;;;;;;;5055906;28;20817;-57
2023/10/05 03:51:32;;;;;;;4.68;2.00;;;;;;;;;;5054805;28;20054;-57
2023/10/05 03:53:59;;;;;;;8.23;1.70;;;;;;;;;;5052708;28;20041;-57
2023/10/05 03:56:27;;;;;;;3.67;1.55;;;;;;;;;;5053390;28;20056;-57
2023/10/05 03:58:53;;;;;;;7.65;2.17;;;;;;;;;;5048669;28;20052;-57
2023/10/05 04:01:19;;;;;;;4.60;1.83;;;;;;;;;;5055054;28;20099;-57
2023/10/05 04:03:46;;;;;;;9.77;2.60;;;;;;;;;;5048539;28;20493;-58
2023/10/05 04:06:28;;;;;;;7.03;1.70;;;;;;;;;;5054361;28;20037;-58
2023/10/05 04:08:57;;;;;;;4.10;1.67;;;;;;;;;;5047542;28;20045;-57
2023/10/05 04:11:26;;;;;;;2.90;1.25;;;;;;;;;;5054323;28;20131;-57
2023/10/05 04:13:53;;;;;;;5.25;1.60;;;;;;;;;;5057257;28;20044;-57
2023/10/05 04:16:26;;;;;;;4.25;1.65;;;;;;;;;;5043944;28;20036;-57
2023/10/05 04:18:52;;;;;;;6.65;1.70;;;;;;;;;;5054507;28;20071;-58
2023/10/05 04:21:18;;;;;;;4.05;1.38;;;;;;;;;;5053746;28;20044;-57
2023/10/05 04:23:49;;;;;;;3.33;1.42;;;;;;;;;;5054997;28;20063;-57
2023/10/05 04:26:17;;;;;;;4.63;1.73;;;;;;;;;;5054069;28;20280;-57
2023/10/05 04:28:52;;;;;;;4.43;1.67;;;;;;;;;;5059649;28;20044;-58
2023/10/05 04:31:21;;;;;;;6.05;1.85;;;;;;;;;;5054005;28;20049;-57
2023/10/05 04:33:48;;;;;;;2.55;1.13;;;;;;;;;;5055917;28;20456;-57
2023/10/05 04:36:16;;;;;;;2.85;1.45;;;;;;;;;;5056160;28;20050;-57
2023/10/05 04:38:43;;;;;;;4.22;1.80;;;;;;;;;;5056953;28;20082;-57
2023/10/05 04:41:12;;;;;;;5.07;1.55;;;;;;;;;;5055370;28;20046;-57
2023/10/05 04:43:39;;;;;;;3.97;1.95;;;;;;;;;;5054611;28;20200;-56
2023/10/05 04:46:09;;;;;;;8.48;2.03;;;;;;;;;;5056929;28;20040;-57
2023/10/05 04:48:35;;;;;;;4.47;1.90;;;;;;;;;;5050178;28;20079;-58
2023/10/05 04:51:05;;;;;;;7.00;2.38;;;;;;;;;;5060985;28;20040;-57
2023/10/05 04:53:32;;;;;;;6.63;2.05;;;;;;;;;;5056158;28;20086;-57
2023/10/05 04:56:12;;;;;;;3.53;1.35;;;;;;;;;;5053972;28;20048;-57
2023/10/05 04:59:00;;;;;;;4.78;1.42;;;;;;;;;;5055816;28;20117;-57
2023/10/05 05:01:35;;;;;;;3.13;1.20;;;;;;;;;;5053705;28;20536;-57
2023/10/05 05:04:27;;;;;;;3.05;1.27;;;;;;;;;;5050780;28;20382;-57
2023/10/05 05:07:00;;;;;;;2.53;1.20;;;;;;;;;;5051890;28;20048;-57
2023/10/05 05:09:29;;;;;;;4.15;1.35;;;;;;;;;;5054013;28;20037;-58
2023/10/05 05:11:57;;;;;;;3.60;1.42;;;;;;;;;;5053616;28;20080;-57
2023/10/05 05:14:23;;;;;;;4.07;1.50;;;;;;;;;;5049089;28;20048;-58
2023/10/05 05:16:52;;;;;;;3.40;1.70;;;;;;;;;;5051112;28;20147;-57
2023/10/05 05:19:18;;;;;;;3.75;1.48;;;;;;;;;;5051162;28;20041;-57
2023/10/05 05:21:45;;;;;;;3.55;1.88;;;;;;;;;;5052141;28;20044;-57
2023/10/05 05:24:13;;;;;;;6.10;2.03;;;;;;;;;;5053784;28;20051;-57
2023/10/05 05:26:39;;;;;;;3.30;1.23;;;;;;;;;;5056820;28;20492;-57
2023/10/05 05:29:05;;;;;;;4.43;1.88;;;;;;;;;;5057670;28;20052;-57
2023/10/05 05:31:31;;;;;;;4.78;2.00;;;;;;;;;;5055887;28;20043;-57
2023/10/05 05:33:59;;;;;;;4.80;1.92;;;;;;;;;;5049644;28;20048;-57
2023/10/05 05:36:25;;;;;;;4.90;1.60;;;;;;;;;;5054501;28;20052;-57
2023/10/05 05:38:51;;;;;;;2.67;1.52;;;;;;;;;;5056755;28;20129;-57
2023/10/05 05:41:19;;;;;;;4.32;1.48;;;;;;;;;;5057346;28;20066;-57
2023/10/05 05:43:45;;;;;;;3.97;1.63;;;;;;;;;;5051312;28;20045;-58
2023/10/05 05:46:12;;;;;;;5.55;1.48;;;;;;;;;;5054498;28;20037;-57
2023/10/05 05:48:48;;;;;;;4.57;1.90;;;;;;;;;;5048347;28;20519;-57
2023/10/05 05:51:15;;;;;;;5.15;1.60;;;;;;;;;;5054055;28;20045;-58
2023/10/05 05:53:46;;;;;;;4.15;1.75;;;;;;;;;;5058144;28;20040;-58
2023/10/05 05:56:25;;;;;;;5.03;2.08;;;;;;;;;;5051060;28;20061;-58
2023/10/05 05:58:51;;;;;;;6.05;2.33;;;;;;;;;;5053119;28;20048;-57
2023/10/05 06:01:17;;;;;;;4.43;2.17;;;;;;;;;;5059748;28;20330;-58
2023/10/05 06:03:48;;;;;;;2.67;1.52;;;;;;;;;;5055384;28;20044;-57
2023/10/05 06:06:16;;;;;;;3.08;1.42;;;;;;;;;;5049668;28;20048;-57
2023/10/05 06:08:42;;;;;;;6.57;2.10;;;;;;;;;;5049445;28;20076;-58
2023/10/05 06:11:08;;;;;;;2.85;1.08;;;;;;;;;;5050988;28;20590;-58
2023/10/05 06:13:37;;;;;;;2.72;1.45;;;;;;;;;;5054955;28;20111;-57
2023/10/05 06:16:10;;;;;;;4.20;1.60;;;;;;;;;;5053528;28;20112;-57
2023/10/05 06:18:39;;;;;;;2.13;1.30;;;;;;;;;;5054672;28;20044;-57
2023/10/05 06:21:05;;;;;;;4.22;2.08;;;;;;;;;;5051312;28;20072;-57
2023/10/05 06:23:34;;;;;;;4.30;1.60;;;;;;;;;;5049804;28;20386;-57
2023/10/05 06:26:01;;;;;;;2.65;1.35;;;;;;;;;;5053071;28;20048;-57
2023/10/05 06:28:27;;;;;;;2.13;1.58;;;;;;;;;;5053667;28;20033;-57
2023/10/05 06:30:53;;;;;;;3.78;1.80;;;;;;;;;;5051277;28;20140;-57
2023/10/05 06:33:20;;;;;;;4.10;1.63;;;;;;;;;;5052562;28;20120;-57
2023/10/05 06:35:47;;;;;;;4.47;1.45;;;;;;;;;;5048746;28;20173;-58
2023/10/05 06:38:14;;;;;;;2.70;1.60;;;;;;;;;;5050901;28;20044;-57
2023/10/05 06:40:40;;;;;;;3.72;1.48;;;;;;;;;;5053424;28;20463;-58
2023/10/05 06:43:06;;;;;;;6.63;2.03;;;;;;;;;;5049173;28;20044;-58
2023/10/05 06:45:32;;;;;;;4.47;1.83;;;;;;;;;;5050247;28;20043;-57
2023/10/05 06:47:58;;;;;;;6.90;2.03;;;;;;;;;;5051926;28;20052;-57
2023/10/05 06:50:24;;;;;;;5.57;1.83;;;;;;;;;;5050802;28;20041;-58
2023/10/05 06:52:52;;;;;;;4.60;1.92;;;;;;;;;;5053981;28;20182;-57
2023/10/05 06:55:21;;;;;;;2.97;1.63;;;;;;;;;;5052079;28;20507;-57
2023/10/05 06:57:49;;;;;;;4.75;1.33;;;;;;;;;;5053372;28;20051;-58
2023/10/05 07:00:16;;;;;;;2.28;1.38;;;;;;;;;;5043526;28;20735;-57
2023/10/05 07:02:45;;;;;;;3.17;1.45;;;;;;;;;;5051364;28;20044;-58
2023/10/05 07:05:11;;;;;;;3.35;1.25;;;;;;;;;;5054577;28;20045;-58
2023/10/05 07:07:38;;;;;;;3.42;1.40;;;;;;;;;;5053220;28;20041;-57
2023/10/05 07:10:05;;;;;;;4.63;1.35;;;;;;;;;;5055199;28;20127;-58
2023/10/05 07:12:35;;;;;;;4.78;1.58;;;;;;;;;;5055804;28;20202;-58
2023/10/05 07:15:05;;;;;;;6.05;1.98;;;;;;;;;;5055864;28;20118;-57
2023/10/05 07:17:31;;;;;;;6.72;2.00;;;;;;;;;;5048837;28;20048;-58
2023/10/05 07:19:58;;;;;;;4.10;1.70;;;;;;;;;;5050657;28;20049;-57
2023/10/05 07:22:24;;;;;;;3.33;1.38;;;;;;;;;;5048508;28;20040;-58
2023/10/05 07:24:50;;;;;;;3.03;1.15;;;;;;;;;;5053359;28;20041;-58
2023/10/05 07:27:17;;;;;;;2.63;1.17;;;;;;;;;;5047829;28;20196;-57
2023/10/05 07:29:46;;;;;;;4.90;1.77;;;;;;;;;;5050374;28;20064;-58
2023/10/05 07:32:15;;;;;;;5.03;1.45;;;;;;;;;;5050715;28;20094;-58
2023/10/05 07:34:41;;;;;;;2.65;1.35;;;;;;;;;;5053433;28;20032;-56
2023/10/05 07:37:10;;;;;;;2.95;1.33;;;;;;;;;;5048518;28;20080;-58
2023/10/05 07:39:37;;;;;;;1.63;0.90;;;;;;;;;;5051400;28;20123;-58
2023/10/05 07:42:03;;;;;;;1.98;0.75;;;;;;;;;;5048047;28;20040;-58
2023/10/05 07:44:29;;;;;;;3.42;1.52;;;;;;;;;;5054759;28;20037;-57
2023/10/05 07:46:55;;;;;;;2.28;1.15;;;;;;;;;;5052346;28;20438;-57
2023/10/05 07:49:21;;;;;;;1.17;0.55;;;;;;;;;;5052067;28;20040;-57
2023/10/05 07:51:48;;;;;;;4.38;1.15;;;;;;;;;;5048285;28;20107;-58
2023/10/05 07:54:14;;;;;;;1.30;0.80;;;;;;;;;;5051024;28;20041;-58
2023/10/05 07:56:41;;;;;;;1.63;0.77;;;;;;;;;;5049609;28;20049;-57
2023/10/05 07:59:07;;;;;;;2.45;1.15;;;;;;;;;;5051660;28;20108;-59
2023/10/05 08:01:32;;;;;;;3.75;1.35;;;;;;;;;;5051012;28;20706;-60
2023/10/05 08:03:59;;;;;;;3.40;1.48;;;;;;;;;;5052101;28;20045;-59
2023/10/05 08:06:25;;;;;;;4.30;1.70;;;;;;;;;;5049147;28;20048;-59
2023/10/05 08:08:53;;;;;;;2.42;1.48;;;;;;;;;;5049024;28;20416;-58
2023/10/05 08:11:20;;;;;;;2.55;1.05;;;;;;;;;;5048092;28;20044;-59
2023/10/05 08:13:47;;;;;;;4.32;1.25;;;;;;;;;;5048774;28;20041;-59
2023/10/05 08:16:13;;;;;;;3.78;1.38;;;;;;;;;;5052656;28;20041;-59
2023/10/05 08:18:39;;;;;;;3.03;1.25;;;;;;;;;;5049166;28;20098;-59
2023/10/05 08:21:05;;;;;;;3.22;1.08;;;;;;;;;;5046797;28;20052;-59
2023/10/05 08:23:31;;;;;;;2.15;0.75;;;;;;;;;;5050915;28;20047;-59
2023/10/05 08:25:57;;;;;;;2.05;1.17;;;;;;;;;;5059219;28;20501;-59
2023/10/05 08:28:24;;;;;;;0.95;0.70;;;;;;;;;;5053349;28;20473;-58
2023/10/05 08:31:06;;;;;;;1.83;0.93;;;;;;;;;;5049341;28;20051;-58
2023/10/05 08:33:35;;;;;;;5.00;1.50;;;;;;;;;;5044484;28;20127;-59
2023/10/05 08:36:11;;;;;;;2.13;1.05;;;;;;;;;;5047377;28;20037;-59
2023/10/05 08:38:37;;;;;;;2.95;1.40;;;;;;;;;;5047401;28;20084;-59
2023/10/05 08:41:11;;;;;;;2.58;1.15;;;;;;;;;;5046509;28;20061;-59
2023/10/05 08:43:46;;;;;;;2.35;1.23;;;;;;;;;;5047627;28;20071;-59
2023/10/05 08:46:12;;;;;;;2.97;1.15;;;;;;;;;;5043466;28;20447;-59
2023/10/05 08:48:39;;;;;;;5.13;1.33;;;;;;;;;;5048873;28;20044;-59
2023/10/05 08:51:10;;;;;;;2.17;0.73;;;;;;;;;;5045007;28;20497;-59
2023/10/05 08:53:48;;;;;;;2.47;0.90;;;;;;;;;;5051150;28;20067;-59
2023/10/05 08:56:15;;;;;;;0.90;0.80;;;;;;;;;;5055021;28;20077;-58
2023/10/05 08:58:48;;;;;;;1.25;0.68;;;;;;;;;;5050552;28;20044;-59
2023/10/05 09:01:33;;;;;;;0.60;0.50;;;;;;;;;;5047391;28;20033;-57
2023/10/05 09:04:11;;;;;;;1.42;0.80;;;;;;;;;;5055975;28;20546;-58
2023/10/05 09:06:47;;;;;;;1.73;0.60;;;;;;;;;;5045836;28;20041;-57
2023/10/05 09:09:20;;;;;;;2.75;0.85;;;;;;;;;;5048669;28;20850;-58
2023/10/05 09:11:46;;;;;;;2.03;0.75;;;;;;;;;;5046007;28;20401;-57
2023/10/05 09:14:20;;;;;;;0.95;0.60;;;;;;;;;;5038838;28;20052;-57
2023/10/05 09:16:55;;;;;;;0.90;0.57;;;;;;;;;;5042589;28;20210;-58
2023/10/05 09:19:25;;;;;;;1.20;0.60;;;;;;;;;;5045118;28;20123;-58
2023/10/05 09:22:34;;;;;;;1.42;0.57;;;;;;;;;;5043401;28;20038;-58
2023/10/05 09:24:52;;;;;;;0.73;0.50;;;;;;;;;;5040507;28;20044;-58
2023/10/05 09:27:19;;;;;;;0.60;0.43;;;;;;;;;;5045564;28;20423;-57
2023/10/05 09:29:51;;;;;;;0.30;0.30;;;;;;;;;;5045935;28;20516;-57
2023/10/05 09:32:22;;;;;;;2.50;0.95;;;;;;;;;;5042717;28;20082;-58
2023/10/05 09:34:51;;;;;;;0.95;0.70;;;;;;;;;;5046843;28;20828;-57
2023/10/05 09:37:23;;;;;;;1.25;0.63;;;;;;;;;;5044056;28;20047;-58
2023/10/05 09:39:49;;;;;;;0.60;0.50;;;;;;;;;;5041508;28;20546;-58
2023/10/05 09:42:25;;;;;;;2.83;0.68;;;;;;;;;;5044324;28;20040;-57
2023/10/05 09:44:57;;;;;;;2.03;0.82;;;;;;;;;;5043272;28;20086;-57
2023/10/05 09:47:33;;;;;;;0.30;0.30;;;;;;;;;;5046995;28;20493;-57
2023/10/05 09:50:00;;;;;;;2.28;0.70;;;;;;;;;;5044709;28;20052;-57
2023/10/05 09:52:34;;;;;;;1.27;0.75;;;;;;;;;;5042128;28;20044;-57
2023/10/05 09:55:03;;;;;;;2.22;0.80;;;;;;;;;;5045536;28;20128;-57
2023/10/05 09:57:31;;;;;;;0.80;0.40;;;;;;;;;;5047112;28;20040;-57
2023/10/05 09:59:57;;;;;;;1.48;0.85;;;;;;;;;;5036776;28;20072;-57
2023/10/05 10:02:26;;;;;;;2.42;1.00;;;;;;;;;;5047383;28;20045;-56
2023/10/05 10:04:52;;;;;;;0.98;0.60;;;;;;;;;;5047676;28;20069;-55
2023/10/05 10:07:22;;;;;;;1.10;0.73;;;;;;;;;;5045726;28;20761;-55
2023/10/05 10:09:59;;;;;;;0.63;0.40;;;;;;;;;;5046465;28;20045;-55
2023/10/05 10:12:38;;;;;;;0.95;0.68;;;;;;;;;;5042258;28;20382;-56
2023/10/05 10:15:05;;;;;;;3.80;0.90;;;;;;;;;;5044161;28;20041;-56
2023/10/05 10:17:35;;;;;;;1.05;0.60;;;;;;;;;;5045331;28;20045;-56
2023/10/05 10:20:17;;;;;;;2.65;1.08;;;;;;;;;;5042658;28;20657;-56
2023/10/05 10:22:43;;;;;;;;;;;;;;;;;;5047360;28;20044;-55
2023/10/05 10:25:27;;;;;;;3.75;1.67;;;;;;;;;;5046151;28;19927;-55
2023/10/05 10:28:10;;;;;;;3.80;1.13;;;;;;;;;;5039250;28;20083;-55
2023/10/05 10:30:36;;;;;;;3.53;1.40;;;;;;;;;;5040001;28;20102;-56
2023/10/05 10:33:20;;;;;;;1.77;0.98;;;;;;;;;;5046283;28;20041;-54
2023/10/05 10:35:47;;;;;;;2.72;1.33;;;;;;;;;;5045660;28;20505;-55
2023/10/05 10:38:17;;;;;;;1.90;1.13;;;;;;;;;;5045444;28;20381;-56
2023/10/05 10:40:53;;;;;;;1.85;0.85;;;;;;;;;;5049945;28;20045;-56
2023/10/05 10:43:20;;;;;;;1.33;1.05;;;;;;;;;;5046463;28;20473;-56
2023/10/05 10:45:49;;;;;;;1.65;1.13;;;;;;;;;;5051841;28;20481;-55
2023/10/05 10:50:45;;;;;;;1.92;0.80;;;;;;;;;;5051305;28;20040;-56
2023/10/05 10:53:16;;;;;;;1.42;1.00;;;;;;;;;;5044690;28;20045;-55
2023/10/05 10:55:45;;;;;;;0.82;0.70;;;;;;;;;;5051912;28;20064;-55
2023/10/05 10:58:13;;;;;;;0.52;0.50;;;;;;;;;;5048098;28;20205;-55
2023/10/05 11:03:11;;;;;;;0.93;0.40;;;;;;;;;;5050775;28;20044;-56
2023/10/05 11:05:40;;;;;;;0.40;0.38;;;;;;;;;;5051306;28;20112;-56
2023/10/05 11:08:12;;;;;;;0.98;0.45;;;;;;;;;;5052869;28;20044;-55
2023/10/05 11:10:40;;;;;;;;;;;;;;;;;;5041714;28;20123;-56
2023/10/05 11:13:18;;;;;;;2.22;1.00;;;;;;;;;;5056580;28;19924;-55
2023/10/05 11:15:50;;;;;;;2.10;0.90;;;;;;;;;;5056899;28;20071;-56
2023/10/05 11:18:18;;;;;;;1.98;1.20;;;;;;;;;;5055487;28;20031;-55
2023/10/05 11:20:52;;;;;;;1.90;0.98;;;;;;;;;;5047938;28;20041;-56
2023/10/05 11:23:25;;;;;;;2.38;0.90;;;;;;;;;;5049651;28;20434;-55
2023/10/05 11:25:51;;;;;;;1.10;0.85;;;;;;;;;;5055678;28;20257;-56
2023/10/05 11:28:24;;;;;;;2.75;1.20;;;;;;;;;;5055499;28;20036;-55
2023/10/05 11:30:50;;;;;;;1.17;0.80;;;;;;;;;;5049459;28;20044;-54
2023/10/05 11:33:16;;;;;;;0.93;0.57;;;;;;;;;;5053442;28;20044;-55
2023/10/05 11:35:48;;;;;;;1.50;0.73;;;;;;;;;;5056982;28;20116;-55
2023/10/05 11:38:16;;;;;;;1.42;0.98;;;;;;;;;;5055148;28;20480;-56
2023/10/05 11:40:49;;;;;;;0.85;0.43;;;;;;;;;;5047171;28;20098;-56
2023/10/05 11:43:16;;;;;;;1.48;0.63;;;;;;;;;;5050287;28;20052;-56
2023/10/05 11:46:12;;;;;;;1.55;0.60;;;;;;;;;;5050790;28;20048;-55
2023/10/05 11:48:42;;;;;;;0.68;0.43;;;;;;;;;;5048457;28;20055;-56
2023/10/05 11:51:13;;;;;;;0.60;0.50;;;;;;;;;;5049754;28;20451;-55
2023/10/05 11:53:39;;;;;;;0.73;0.40;;;;;;;;;;5045278;28;20417;-56
2023/10/05 11:56:06;;;;;;;0.68;0.50;;;;;;;;;;5045770;28;20153;-55
2023/10/05 11:58:41;;;;;;;0.20;0.20;;;;;;;;;;5041673;28;20041;-55
2023/10/05 12:01:07;;;;;;;1.45;0.50;;;;;;;;;;5044108;28;20052;-55
2023/10/05 12:03:33;;;;;;;0.47;0.40;;;;;;;;;;5048263;28;20040;-55
2023/10/05 12:06:00;;;;;;;1.13;0.52;;;;;;;;;;5053943;28;20049;-55
2023/10/05 12:08:30;;;;;;;1.05;0.40;;;;;;;;;;5049757;28;20037;-56
2023/10/05 12:10:59;;;;;;;0.47;0.47;;;;;;;;;;5053713;28;20401;-54
2023/10/05 12:13:29;;;;;;;0.85;0.45;;;;;;;;;;5055216;28;20743;-56
2023/10/05 12:15:55;;;;;;;1.38;0.80;;;;;;;;;;5052623;28;20037;-56
2023/10/05 12:18:22;;;;;;;0.68;0.43;;;;;;;;;;5046569;28;20043;-55
2023/10/05 12:20:51;;;;;;;0.98;0.63;;;;;;;;;;5049941;28;20037;-56
2023/10/05 12:23:17;;;;;;;1.85;0.77;;;;;;;;;;5047539;28;20036;-56
2023/10/05 12:25:45;;;;;;;3.08;0.88;;;;;;;;;;5057017;28;20044;-56
2023/10/05 12:28:11;;;;;;;1.30;0.75;;;;;;;;;;5051565;28;20052;-55
2023/10/05 12:30:39;;;;;;;1.20;0.88;;;;;;;;;;5046190;28;20052;-55
2023/10/05 12:33:08;;;;;;;2.47;1.10;;;;;;;;;;5041064;28;20045;-56
2023/10/05 12:35:36;;;;;;;0.77;0.60;;;;;;;;;;5048451;28;20044;-55
2023/10/05 12:38:06;;;;;;;2.90;0.93;;;;;;;;;;5040768;28;20041;-56
2023/10/05 12:40:40;;;;;;;3.40;1.40;;;;;;;;;;5046923;28;20414;-55
2023/10/05 12:43:06;;;;;;;4.25;1.63;;;;;;;;;;5049622;28;20037;-55
2023/10/05 12:45:33;;;;;;;2.00;1.20;;;;;;;;;;5048455;28;20666;-56
2023/10/05 12:47:59;;;;;;;1.55;1.00;;;;;;;;;;5048802;28;20124;-56
2023/10/05 12:50:27;;;;;;;0.60;0.60;;;;;;;;;;5048019;28;20120;-56
2023/10/05 12:52:54;;;;;;;0.80;0.70;;;;;;;;;;5047767;28;20043;-55
2023/10/05 12:55:24;;;;;;;0.80;0.80;;;;;;;;;;5052481;28;20080;-55
2023/10/05 12:57:51;;;;;;;0.60;0.60;;;;;;;;;;5053044;28;20657;-55
2023/10/05 13:00:22;;;;;;;1.00;0.60;;;;;;;;;;5056123;28;20052;-56
2023/10/05 13:02:51;;;;;;;1.42;0.80;;;;;;;;;;5051680;28;20079;-56
2023/10/05 13:05:18;;;;;;;0.70;0.70;;;;;;;;;;5054799;28;20423;-56
2023/10/05 13:07:44;;;;;;;2.00;0.98;;;;;;;;;;5057458;28;20475;-56
2023/10/05 13:10:21;;;;;;;0.80;0.70;;;;;;;;;;5044564;28;20625;-56
2023/10/05 13:12:48;;;;;;;0.93;0.63;;;;;;;;;;5040617;28;20099;-55
2023/10/05 13:15:15;;;;;;;1.70;0.70;;;;;;;;;;5045822;28;20041;-56
2023/10/05 13:17:45;;;;;;;1.30;0.60;;;;;;;;;;5048493;28;20433;-55
2023/10/05 13:20:15;;;;;;;2.47;0.95;;;;;;;;;;5048837;28;20052;-55
2023/10/05 13:22:44;;;;;;;3.22;0.88;;;;;;;;;;5054194;28;20044;-55
2023/10/05 13:25:10;;;;;;;1.27;0.70;;;;;;;;;;5046746;28;20033;-56
2023/10/05 13:27:36;;;;;;;0.75;0.57;;;;;;;;;;5047254;28;20397;-56
2023/10/05 13:30:03;;;;;;;1.52;0.65;;;;;;;;;;5050773;28;20045;-55
2023/10/05 13:32:31;;;;;;;1.48;0.75;;;;;;;;;;5051622;28;20045;-56
2023/10/05 13:34:57;;;;;;;0.70;0.70;;;;;;;;;;5048881;28;20056;-55
2023/10/05 13:37:27;;;;;;;0.65;0.60;;;;;;;;;;5054828;28;20037;-55
2023/10/05 13:39:54;;;;;;;1.35;0.68;;;;;;;;;;5051648;28;20083;-55
2023/10/05 13:42:26;;;;;;;0.68;0.50;;;;;;;;;;5050501;28;20036;-55
2023/10/05 13:44:54;;;;;;;0.70;0.70;;;;;;;;;;5050057;28;20098;-56
2023/10/05 13:47:20;;;;;;;0.85;0.57;;;;;;;;;;5041276;28;20286;-56
2023/10/05 13:49:55;;;;;;;2.33;0.80;;;;;;;;;;5049707;28;20053;-55
2023/10/05 13:52:21;;;;;;;0.95;0.68;;;;;;;;;;5051274;28;20553;-55
2023/10/05 13:54:49;;;;;;;0.63;0.60;;;;;;;;;;5050996;28;20044;-56
2023/10/05 13:57:16;;;;;;;0.70;0.60;;;;;;;;;;5047525;28;20580;-55
2023/10/05 13:59:42;;;;;;;0.47;0.30;;;;;;;;;;5049854;28;20033;-54
2023/10/05 14:02:08;;;;;;;1.60;0.82;;;;;;;;;;5050823;28;20500;-55
2023/10/05 14:04:38;;;;;;;1.88;1.05;;;;;;;;;;5052111;28;20076;-56
2023/10/05 14:07:07;;;;;;;2.13;1.10;;;;;;;;;;5048044;28;20044;-61
2023/10/05 14:09:41;;;;;;;2.03;1.27;;;;;;;;;;5040450;28;20493;-56
2023/10/05 14:12:07;;;;;;;2.88;1.38;;;;;;;;;;5053562;28;20056;-56
2023/10/05 14:14:33;;;;;;;1.20;1.02;;;;;;;;;;5054728;28;20158;-56
2023/10/05 14:17:06;;;;;;;1.50;1.10;;;;;;;;;;5059025;28;20045;-55
2023/10/05 14:19:33;;;;;;;1.45;0.90;;;;;;;;;;5053895;28;20040;-58
2023/10/05 14:22:00;;;;;;;1.10;0.73;;;;;;;;;;5051158;28;20420;-59
2023/10/05 14:24:27;;;;;;;1.63;0.82;;;;;;;;;;5052048;28;20040;-60
2023/10/05 14:26:56;;;;;;;1.25;0.98;;;;;;;;;;5053319;28;20040;-55
2023/10/05 14:29:34;;;;;;;1.48;0.98;;;;;;;;;;5050515;28;20043;-55
2023/10/05 14:32:04;;;;;;;1.80;1.08;;;;;;;;;;5054824;28;20579;-56
2023/10/05 14:34:32;;;;;;;1.45;0.98;;;;;;;;;;5055985;28;20033;-62
2023/10/05 14:36:59;;;;;;;4.35;1.63;;;;;;;;;;5054390;28;20045;-56
2023/10/05 14:39:32;;;;;;;1.92;1.40;;;;;;;;;;5048755;28;20045;-56
2023/10/05 14:42:00;;;;;;;1.05;0.90;;;;;;;;;;5042776;28;20139;-56
2023/10/05 14:44:29;;;;;;;1.08;0.98;;;;;;;;;;5042764;28;20098;-56
2023/10/05 14:46:57;;;;;;;1.00;0.90;;;;;;;;;;5047539;28;20381;-55
2023/10/05 14:49:23;;;;;;;1.23;0.68;;;;;;;;;;5043130;28;20076;-56
2023/10/05 14:51:50;;;;;;;1.50;0.77;;;;;;;;;;5042601;28;20076;-56
2023/10/05 14:54:16;;;;;;;2.53;1.48;;;;;;;;;;5040475;28;20182;-56
2023/10/05 14:56:43;;;;;;;2.55;1.20;;;;;;;;;;5040660;28;20591;-55
2023/10/05 14:59:09;;;;;;;2.22;1.35;;;;;;;;;;5037896;28;20405;-55
2023/10/05 15:01:35;;;;;;;1.63;1.50;;;;;;;;;;5043963;28;20045;-56
2023/10/05 15:04:01;;;;;;;2.08;1.13;;;;;;;;;;5033925;28;20049;-56
2023/10/05 15:06:29;;;;;;;6.10;2.17;;;;;;;;;;5039886;28;20718;-56
2023/10/05 15:08:55;;;;;;;2.33;1.40;;;;;;;;;;5034260;28;20064;-56
2023/10/05 15:11:21;;;;;;;2.45;1.23;;;;;;;;;;5043413;28;20105;-56